sensor_id;sensor_type;location;lat;lon;timestamp;P1;durP1;ratioP1;P2;durP2;ratioP2
48375;SDS011;34178;50.904;11.560;2023-11-19T00:02:21;4.15;;;1.38;;
48375;SDS011;34178;50.904;11.560;2023-11-19T00:04:47;3.65;;;1.85;;
48375;SDS011;34178;50.904;11.560;2023-11-19T00:07:13;3.63;;;1.80;;
48375;SDS011;34178;50.904;11.560;2023-11-19T00:09:39;2.80;;;1.50;;
48375;SDS011;34178;50.904;11.560;2023-11-19T00:12:05;4.38;;;1.77;;
48375;SDS011;34178;50.904;11.560;2023-11-19T00:14:32;3.65;;;1.48;;
48375;SDS011;34178;50.904;11.560;2023-11-19T00:17:00;3.83;;;1.40;;
48375;SDS011;34178;50.904;11.560;2023-11-19T00:19:26;2.35;;;1.05;;
48375;SDS011;34178;50.904;11.560;2023-11-19T00:21:52;3.70;;;1.15;;
48375;SDS011;34178;50.904;11.560;2023-11-19T00:24:18;2.63;;;1.10;;
48375;SDS011;34178;50.904;11.560;2023-11-19T00:26:45;2.85;;;1.15;;
48375;SDS011;34178;50.904;11.560;2023-11-19T00:29:13;3.50;;;1.33;;
48375;SDS011;34178;50.904;11.560;2023-11-19T00:31:39;3.30;;;1.25;;
48375;SDS011;34178;50.904;11.560;2023-11-19T00:34:04;2.95;;;0.88;;
48375;SDS011;34178;50.904;11.560;2023-11-19T00:36:31;1.92;;;1.02;;
48375;SDS011;34178;50.904;11.560;2023-11-19T00:38:57;3.20;;;1.20;;
48375;SDS011;34178;50.904;11.560;2023-11-19T00:41:23;3.25;;;1.25;;
48375;SDS011;34178;50.904;11.560;2023-11-19T00:43:48;1.92;;;0.90;;
48375;SDS011;34178;50.904;11.560;2023-11-19T00:46:14;1.77;;;0.63;;
48375;SDS011;34178;50.904;11.560;2023-11-19T00:48:40;1.23;;;0.65;;
48375;SDS011;34178;50.904;11.560;2023-11-19T00:51:06;1.58;;;0.60;;
48375;SDS011;34178;50.904;11.560;2023-11-19T00:53:31;1.73;;;0.70;;
48375;SDS011;34178;50.904;11.560;2023-11-19T00:55:59;1.77;;;0.75;;
48375;SDS011;34178;50.904;11.560;2023-11-19T00:58:25;1.55;;;0.40;;
48375;SDS011;34178;50.904;11.560;2023-11-19T01:00:50;1.08;;;0.47;;
48375;SDS011;34178;50.904;11.560;2023-11-19T01:03:16;1.60;;;0.55;;
48375;SDS011;34178;50.904;11.560;2023-11-19T01:05:42;1.00;;;0.50;;
48375;SDS011;34178;50.904;11.560;2023-11-19T01:08:09;0.95;;;0.43;;
48375;SDS011;34178;50.904;11.560;2023-11-19T01:10:36;1.00;;;0.40;;
48375;SDS011;34178;50.904;11.560;2023-11-19T01:13:02;0.95;;;0.55;;
48375;SDS011;34178;50.904;11.560;2023-11-19T01:15:30;0.95;;;0.40;;
48375;SDS011;34178;50.904;11.560;2023-11-19T01:17:56;0.20;;;0.20;;
48375;SDS011;34178;50.904;11.560;2023-11-19T01:20:22;1.00;;;0.50;;
48375;SDS011;34178;50.904;11.560;2023-11-19T01:22:48;0.90;;;0.30;;
48375;SDS011;34178;50.904;11.560;2023-11-19T01:25:14;0.80;;;0.45;;
48375;SDS011;34178;50.904;11.560;2023-11-19T01:27:40;0.80;;;0.47;;
48375;SDS011;34178;50.904;11.560;2023-11-19T01:30:06;0.77;;;0.30;;
48375;SDS011;34178;50.904;11.560;2023-11-19T01:32:35;0.63;;;0.30;;
48375;SDS011;34178;50.904;11.560;2023-11-19T01:35:02;0.55;;;0.38;;
48375;SDS011;34178;50.904;11.560;2023-11-19T01:37:29;0.40;;;0.30;;
48375;SDS011;34178;50.904;11.560;2023-11-19T01:39:56;0.50;;;0.30;;
48375;SDS011;34178;50.904;11.560;2023-11-19T01:42:22;0.82;;;0.57;;
48375;SDS011;34178;50.904;11.560;2023-11-19T01:45:00;0.93;;;0.47;;
48375;SDS011;34178;50.904;11.560;2023-11-19T01:47:29;1.33;;;0.55;;
48375;SDS011;34178;50.904;11.560;2023-11-19T01:49:56;0.63;;;0.30;;
48375;SDS011;34178;50.904;11.560;2023-11-19T01:52:22;0.50;;;0.25;;
48375;SDS011;34178;50.904;11.560;2023-11-19T01:54:49;0.90;;;0.40;;
48375;SDS011;34178;50.904;11.560;2023-11-19T01:57:16;1.13;;;0.50;;
48375;SDS011;34178;50.904;11.560;2023-11-19T01:59:42;1.33;;;0.30;;
48375;SDS011;34178;50.904;11.560;2023-11-19T02:02:08;1.05;;;0.65;;
48375;SDS011;34178;50.904;11.560;2023-11-19T02:04:34;0.98;;;0.45;;
48375;SDS011;34178;50.904;11.560;2023-11-19T02:07:00;1.75;;;0.60;;
48375;SDS011;34178;50.904;11.560;2023-11-19T02:09:26;1.00;;;0.40;;
48375;SDS011;34178;50.904;11.560;2023-11-19T02:11:52;0.30;;;0.20;;
48375;SDS011;34178;50.904;11.560;2023-11-19T02:14:19;1.17;;;0.45;;
48375;SDS011;34178;50.904;11.560;2023-11-19T02:16:50;0.95;;;0.60;;
48375;SDS011;34178;50.904;11.560;2023-11-19T02:19:19;0.70;;;0.40;;
48375;SDS011;34178;50.904;11.560;2023-11-19T02:21:44;0.52;;;0.30;;
48375;SDS011;34178;50.904;11.560;2023-11-19T02:24:10;1.92;;;0.40;;
48375;SDS011;34178;50.904;11.560;2023-11-19T02:26:39;0.50;;;0.40;;
48375;SDS011;34178;50.904;11.560;2023-11-19T02:29:09;0.63;;;0.40;;
48375;SDS011;34178;50.904;11.560;2023-11-19T02:31:35;1.33;;;0.40;;
48375;SDS011;34178;50.904;11.560;2023-11-19T02:34:01;1.00;;;0.73;;
48375;SDS011;34178;50.904;11.560;2023-11-19T02:36:27;1.38;;;0.30;;
48375;SDS011;34178;50.904;11.560;2023-11-19T02:38:53;0.98;;;0.40;;
48375;SDS011;34178;50.904;11.560;2023-11-19T02:41:18;0.45;;;0.40;;
48375;SDS011;34178;50.904;11.560;2023-11-19T02:43:44;2.15;;;0.45;;
48375;SDS011;34178;50.904;11.560;2023-11-19T02:46:10;0.35;;;0.32;;
48375;SDS011;34178;50.904;11.560;2023-11-19T02:48:36;0.70;;;0.40;;
48375;SDS011;34178;50.904;11.560;2023-11-19T02:51:02;0.60;;;0.30;;
48375;SDS011;34178;50.904;11.560;2023-11-19T02:53:29;0.82;;;0.40;;
48375;SDS011;34178;50.904;11.560;2023-11-19T02:55:55;1.10;;;0.43;;
48375;SDS011;34178;50.904;11.560;2023-11-19T02:58:27;1.50;;;0.50;;
48375;SDS011;34178;50.904;11.560;2023-11-19T03:00:53;1.05;;;0.50;;
48375;SDS011;34178;50.904;11.560;2023-11-19T03:03:25;1.25;;;0.55;;
48375;SDS011;34178;50.904;11.560;2023-11-19T03:06:03;0.50;;;0.38;;
48375;SDS011;34178;50.904;11.560;2023-11-19T03:08:36;0.68;;;0.32;;
48375;SDS011;34178;50.904;11.560;2023-11-19T03:11:02;1.00;;;0.50;;
48375;SDS011;34178;50.904;11.560;2023-11-19T03:13:29;0.80;;;0.25;;
48375;SDS011;34178;50.904;11.560;2023-11-19T03:15:55;0.93;;;0.52;;
48375;SDS011;34178;50.904;11.560;2023-11-19T03:18:21;1.48;;;0.20;;
48375;SDS011;34178;50.904;11.560;2023-11-19T03:20:47;0.40;;;0.40;;
48375;SDS011;34178;50.904;11.560;2023-11-19T03:23:13;1.70;;;0.50;;
48375;SDS011;34178;50.904;11.560;2023-11-19T03:25:38;0.60;;;0.40;;
48375;SDS011;34178;50.904;11.560;2023-11-19T03:28:04;0.98;;;0.60;;
48375;SDS011;34178;50.904;11.560;2023-11-19T03:30:31;0.70;;;0.40;;
48375;SDS011;34178;50.904;11.560;2023-11-19T03:32:57;0.75;;;0.38;;
48375;SDS011;34178;50.904;11.560;2023-11-19T03:35:24;0.93;;;0.43;;
48375;SDS011;34178;50.904;11.560;2023-11-19T03:37:50;2.72;;;0.68;;
48375;SDS011;34178;50.904;11.560;2023-11-19T03:40:16;2.60;;;0.60;;
48375;SDS011;34178;50.904;11.560;2023-11-19T03:42:44;5.72;;;0.57;;
48375;SDS011;34178;50.904;11.560;2023-11-19T03:45:10;0.93;;;0.40;;
48375;SDS011;34178;50.904;11.560;2023-11-19T03:47:36;1.27;;;0.50;;
48375;SDS011;34178;50.904;11.560;2023-11-19T03:50:01;1.00;;;0.40;;
48375;SDS011;34178;50.904;11.560;2023-11-19T03:52:28;1.63;;;0.57;;
48375;SDS011;34178;50.904;11.560;2023-11-19T03:54:54;1.80;;;0.50;;
48375;SDS011;34178;50.904;11.560;2023-11-19T03:57:21;1.30;;;0.38;;
48375;SDS011;34178;50.904;11.560;2023-11-19T03:59:47;0.70;;;0.50;;
48375;SDS011;34178;50.904;11.560;2023-11-19T04:02:13;1.73;;;0.55;;
48375;SDS011;34178;50.904;11.560;2023-11-19T04:04:40;0.50;;;0.30;;
48375;SDS011;34178;50.904;11.560;2023-11-19T04:07:06;0.30;;;0.20;;
48375;SDS011;34178;50.904;11.560;2023-11-19T04:09:31;0.60;;;0.40;;
48375;SDS011;34178;50.904;11.560;2023-11-19T04:12:03;1.38;;;0.43;;
48375;SDS011;34178;50.904;11.560;2023-11-19T04:14:29;1.90;;;0.57;;
48375;SDS011;34178;50.904;11.560;2023-11-19T04:16:54;0.70;;;0.40;;
48375;SDS011;34178;50.904;11.560;2023-11-19T04:19:20;1.85;;;0.50;;
48375;SDS011;34178;50.904;11.560;2023-11-19T04:21:47;0.93;;;0.50;;
48375;SDS011;34178;50.904;11.560;2023-11-19T04:24:12;0.77;;;0.30;;
48375;SDS011;34178;50.904;11.560;2023-11-19T04:26:42;1.42;;;0.30;;
48375;SDS011;34178;50.904;11.560;2023-11-19T04:29:11;1.50;;;0.60;;
48375;SDS011;34178;50.904;11.560;2023-11-19T04:31:38;0.70;;;0.20;;
48375;SDS011;34178;50.904;11.560;2023-11-19T04:34:04;0.30;;;0.20;;
48375;SDS011;34178;50.904;11.560;2023-11-19T04:36:31;0.35;;;0.25;;
48375;SDS011;34178;50.904;11.560;2023-11-19T04:38:58;1.48;;;0.28;;
48375;SDS011;34178;50.904;11.560;2023-11-19T04:41:24;0.82;;;0.40;;
48375;SDS011;34178;50.904;11.560;2023-11-19T04:43:52;1.85;;;0.20;;
48375;SDS011;34178;50.904;11.560;2023-11-19T04:46:18;1.08;;;0.50;;
48375;SDS011;34178;50.904;11.560;2023-11-19T04:48:44;0.60;;;0.40;;
48375;SDS011;34178;50.904;11.560;2023-11-19T04:51:10;0.98;;;0.40;;
48375;SDS011;34178;50.904;11.560;2023-11-19T04:53:36;1.23;;;0.30;;
48375;SDS011;34178;50.904;11.560;2023-11-19T04:56:07;0.60;;;0.40;;
48375;SDS011;34178;50.904;11.560;2023-11-19T04:58:34;0.77;;;0.50;;
48375;SDS011;34178;50.904;11.560;2023-11-19T05:01:01;0.60;;;0.35;;
48375;SDS011;34178;50.904;11.560;2023-11-19T05:03:26;0.93;;;0.30;;
48375;SDS011;34178;50.904;11.560;2023-11-19T05:05:52;0.95;;;0.40;;
48375;SDS011;34178;50.904;11.560;2023-11-19T05:08:18;1.70;;;0.32;;
48375;SDS011;34178;50.904;11.560;2023-11-19T05:10:44;0.43;;;0.30;;
48375;SDS011;34178;50.904;11.560;2023-11-19T05:13:10;6.78;;;0.55;;
48375;SDS011;34178;50.904;11.560;2023-11-19T05:15:35;2.28;;;0.30;;
48375;SDS011;34178;50.904;11.560;2023-11-19T05:18:01;0.98;;;0.40;;
48375;SDS011;34178;50.904;11.560;2023-11-19T05:20:27;0.30;;;0.20;;
48375;SDS011;34178;50.904;11.560;2023-11-19T05:22:53;0.35;;;0.22;;
48375;SDS011;34178;50.904;11.560;2023-11-19T05:25:18;0.52;;;0.30;;
48375;SDS011;34178;50.904;11.560;2023-11-19T05:27:45;0.25;;;0.20;;
48375;SDS011;34178;50.904;11.560;2023-11-19T05:30:11;0.25;;;0.22;;
48375;SDS011;34178;50.904;11.560;2023-11-19T05:32:37;0.60;;;0.30;;
48375;SDS011;34178;50.904;11.560;2023-11-19T05:35:02;1.23;;;0.20;;
48375;SDS011;34178;50.904;11.560;2023-11-19T05:37:28;0.30;;;0.20;;
48375;SDS011;34178;50.904;11.560;2023-11-19T05:39:54;5.20;;;2.40;;
48375;SDS011;34178;50.904;11.560;2023-11-19T05:42:19;2.95;;;0.50;;
48375;SDS011;34178;50.904;11.560;2023-11-19T05:44:45;1.13;;;0.30;;
48375;SDS011;34178;50.904;11.560;2023-11-19T05:47:11;0.60;;;0.32;;
48375;SDS011;34178;50.904;11.560;2023-11-19T05:49:37;0.88;;;0.63;;
48375;SDS011;34178;50.904;11.560;2023-11-19T05:52:03;0.40;;;0.35;;
48375;SDS011;34178;50.904;11.560;2023-11-19T05:54:32;1.55;;;0.35;;
48375;SDS011;34178;50.904;11.560;2023-11-19T05:57:02;0.47;;;0.22;;
48375;SDS011;34178;50.904;11.560;2023-11-19T05:59:34;1.17;;;0.40;;
48375;SDS011;34178;50.904;11.560;2023-11-19T06:02:01;0.73;;;0.20;;
48375;SDS011;34178;50.904;11.560;2023-11-19T06:04:27;0.77;;;0.30;;
48375;SDS011;34178;50.904;11.560;2023-11-19T06:06:53;0.98;;;0.30;;
48375;SDS011;34178;50.904;11.560;2023-11-19T06:09:20;3.42;;;0.70;;
48375;SDS011;34178;50.904;11.560;2023-11-19T06:11:48;0.30;;;0.20;;
48375;SDS011;34178;50.904;11.560;2023-11-19T06:14:14;0.35;;;0.20;;
48375;SDS011;34178;50.904;11.560;2023-11-19T06:16:40;2.25;;;0.40;;
48375;SDS011;34178;50.904;11.560;2023-11-19T06:19:05;0.28;;;0.20;;
48375;SDS011;34178;50.904;11.560;2023-11-19T06:21:31;0.28;;;0.20;;
48375;SDS011;34178;50.904;11.560;2023-11-19T06:23:57;0.10;;;0.10;;
48375;SDS011;34178;50.904;11.560;2023-11-19T06:26:24;0.40;;;0.22;;
48375;SDS011;34178;50.904;11.560;2023-11-19T06:28:49;1.33;;;0.50;;
48375;SDS011;34178;50.904;11.560;2023-11-19T06:31:15;1.98;;;0.30;;
48375;SDS011;34178;50.904;11.560;2023-11-19T06:33:41;0.40;;;0.20;;
48375;SDS011;34178;50.904;11.560;2023-11-19T06:36:07;0.82;;;0.40;;
48375;SDS011;34178;50.904;11.560;2023-11-19T06:38:34;1.05;;;0.40;;
48375;SDS011;34178;50.904;11.560;2023-11-19T06:41:00;0.43;;;0.40;;
48375;SDS011;34178;50.904;11.560;2023-11-19T06:43:26;0.35;;;0.30;;
48375;SDS011;34178;50.904;11.560;2023-11-19T06:45:53;2.05;;;0.47;;
48375;SDS011;34178;50.904;11.560;2023-11-19T06:48:19;1.60;;;0.40;;
48375;SDS011;34178;50.904;11.560;2023-11-19T06:50:45;2.95;;;0.60;;
48375;SDS011;34178;50.904;11.560;2023-11-19T06:53:10;3.45;;;1.48;;
48375;SDS011;34178;50.904;11.560;2023-11-19T06:55:36;3.47;;;1.88;;
48375;SDS011;34178;50.904;11.560;2023-11-19T06:58:02;3.58;;;1.17;;
48375;SDS011;34178;50.904;11.560;2023-11-19T07:00:28;6.47;;;3.13;;
48375;SDS011;34178;50.904;11.560;2023-11-19T07:02:54;12.93;;;8.23;;
48375;SDS011;34178;50.904;11.560;2023-11-19T07:05:20;6.57;;;4.30;;
48375;SDS011;34178;50.904;11.560;2023-11-19T07:07:46;8.00;;;5.82;;
48375;SDS011;34178;50.904;11.560;2023-11-19T07:10:12;8.63;;;7.20;;
48375;SDS011;34178;50.904;11.560;2023-11-19T07:12:38;6.53;;;2.55;;
48375;SDS011;34178;50.904;11.560;2023-11-19T07:15:04;2.45;;;1.20;;
48375;SDS011;34178;50.904;11.560;2023-11-19T07:17:30;4.97;;;0.90;;
48375;SDS011;34178;50.904;11.560;2023-11-19T07:19:56;1.90;;;0.90;;
48375;SDS011;34178;50.904;11.560;2023-11-19T07:22:24;1.73;;;0.90;;
48375;SDS011;34178;50.904;11.560;2023-11-19T07:24:50;1.70;;;0.60;;
48375;SDS011;34178;50.904;11.560;2023-11-19T07:27:18;4.45;;;1.58;;
48375;SDS011;34178;50.904;11.560;2023-11-19T07:29:44;3.28;;;1.48;;
48375;SDS011;34178;50.904;11.560;2023-11-19T07:32:10;3.85;;;1.55;;
48375;SDS011;34178;50.904;11.560;2023-11-19T07:34:36;4.75;;;1.48;;
48375;SDS011;34178;50.904;11.560;2023-11-19T07:37:02;5.85;;;1.23;;
48375;SDS011;34178;50.904;11.560;2023-11-19T07:39:28;3.05;;;1.10;;
48375;SDS011;34178;50.904;11.560;2023-11-19T07:41:54;5.82;;;2.00;;
48375;SDS011;34178;50.904;11.560;2023-11-19T07:44:20;57.22;;;23.58;;
48375;SDS011;34178;50.904;11.560;2023-11-19T07:46:46;13.00;;;9.07;;
48375;SDS011;34178;50.904;11.560;2023-11-19T07:49:13;20.55;;;11.98;;
48375;SDS011;34178;50.904;11.560;2023-11-19T07:51:39;46.58;;;18.70;;
48375;SDS011;34178;50.904;11.560;2023-11-19T07:54:05;16.70;;;9.30;;
48375;SDS011;34178;50.904;11.560;2023-11-19T07:56:34;9.15;;;4.78;;
48375;SDS011;34178;50.904;11.560;2023-11-19T07:59:00;12.82;;;4.82;;
48375;SDS011;34178;50.904;11.560;2023-11-19T08:01:27;8.88;;;3.70;;
48375;SDS011;34178;50.904;11.560;2023-11-19T08:03:52;8.70;;;2.83;;
48375;SDS011;34178;50.904;11.560;2023-11-19T08:06:19;8.85;;;3.80;;
48375;SDS011;34178;50.904;11.560;2023-11-19T08:08:44;6.50;;;2.78;;
48375;SDS011;34178;50.904;11.560;2023-11-19T08:11:10;14.93;;;6.18;;
48375;SDS011;34178;50.904;11.560;2023-11-19T08:13:36;8.38;;;3.25;;
48375;SDS011;34178;50.904;11.560;2023-11-19T08:16:01;5.97;;;2.35;;
48375;SDS011;34178;50.904;11.560;2023-11-19T08:18:27;8.30;;;4.00;;
48375;SDS011;34178;50.904;11.560;2023-11-19T08:20:53;11.20;;;5.68;;
48375;SDS011;34178;50.904;11.560;2023-11-19T08:23:19;8.20;;;3.83;;
48375;SDS011;34178;50.904;11.560;2023-11-19T08:25:45;9.77;;;4.78;;
48375;SDS011;34178;50.904;11.560;2023-11-19T08:28:11;5.72;;;2.30;;
48375;SDS011;34178;50.904;11.560;2023-11-19T08:30:37;7.93;;;3.47;;
48375;SDS011;34178;50.904;11.560;2023-11-19T08:33:03;7.63;;;2.30;;
48375;SDS011;34178;50.904;11.560;2023-11-19T08:35:30;4.22;;;1.13;;
48375;SDS011;34178;50.904;11.560;2023-11-19T08:37:56;4.95;;;1.10;;
48375;SDS011;34178;50.904;11.560;2023-11-19T08:40:23;3.50;;;0.98;;
48375;SDS011;34178;50.904;11.560;2023-11-19T08:42:50;3.90;;;1.05;;
48375;SDS011;34178;50.904;11.560;2023-11-19T08:45:16;3.88;;;1.33;;
48375;SDS011;34178;50.904;11.560;2023-11-19T08:47:42;3.17;;;1.10;;
48375;SDS011;34178;50.904;11.560;2023-11-19T08:50:10;2.08;;;0.80;;
48375;SDS011;34178;50.904;11.560;2023-11-19T08:52:36;3.63;;;0.80;;
48375;SDS011;34178;50.904;11.560;2023-11-19T08:55:02;1.92;;;0.50;;
48375;SDS011;34178;50.904;11.560;2023-11-19T08:57:30;0.95;;;0.50;;
48375;SDS011;34178;50.904;11.560;2023-11-19T08:59:56;1.85;;;0.30;;
48375;SDS011;34178;50.904;11.560;2023-11-19T09:02:22;0.98;;;0.50;;
48375;SDS011;34178;50.904;11.560;2023-11-19T09:04:47;1.13;;;0.40;;
48375;SDS011;34178;50.904;11.560;2023-11-19T09:07:13;1.17;;;0.60;;
48375;SDS011;34178;50.904;11.560;2023-11-19T09:09:38;4.82;;;0.50;;
48375;SDS011;34178;50.904;11.560;2023-11-19T09:12:06;1.95;;;0.60;;
48375;SDS011;34178;50.904;11.560;2023-11-19T09:14:32;2.90;;;0.75;;
48375;SDS011;34178;50.904;11.560;2023-11-19T09:16:58;3.08;;;0.80;;
48375;SDS011;34178;50.904;11.560;2023-11-19T09:19:24;2.00;;;0.70;;
48375;SDS011;34178;50.904;11.560;2023-11-19T09:21:51;2.42;;;0.70;;
48375;SDS011;34178;50.904;11.560;2023-11-19T09:24:18;5.95;;;2.08;;
48375;SDS011;34178;50.904;11.560;2023-11-19T09:26:43;7.65;;;3.15;;
48375;SDS011;34178;50.904;11.560;2023-11-19T09:29:09;4.93;;;1.00;;
48375;SDS011;34178;50.904;11.560;2023-11-19T09:31:35;7.00;;;1.70;;
48375;SDS011;34178;50.904;11.560;2023-11-19T09:34:03;4.50;;;1.42;;
48375;SDS011;34178;50.904;11.560;2023-11-19T09:36:29;6.68;;;1.00;;
48375;SDS011;34178;50.904;11.560;2023-11-19T09:38:55;3.97;;;0.88;;
48375;SDS011;34178;50.904;11.560;2023-11-19T09:41:20;6.10;;;0.95;;
48375;SDS011;34178;50.904;11.560;2023-11-19T09:43:46;8.13;;;1.05;;
48375;SDS011;34178;50.904;11.560;2023-11-19T09:46:15;8.60;;;1.70;;
48375;SDS011;34178;50.904;11.560;2023-11-19T09:48:41;9.15;;;2.03;;
48375;SDS011;34178;50.904;11.560;2023-11-19T09:51:10;8.27;;;1.40;;
48375;SDS011;34178;50.904;11.560;2023-11-19T09:53:36;6.45;;;1.30;;
48375;SDS011;34178;50.904;11.560;2023-11-19T09:56:03;14.32;;;2.30;;
48375;SDS011;34178;50.904;11.560;2023-11-19T09:58:29;12.68;;;2.00;;
48375;SDS011;34178;50.904;11.560;2023-11-19T10:00:56;13.68;;;2.08;;
48375;SDS011;34178;50.904;11.560;2023-11-19T10:03:29;10.07;;;1.50;;
48375;SDS011;34178;50.904;11.560;2023-11-19T10:06:06;14.82;;;2.08;;
48375;SDS011;34178;50.904;11.560;2023-11-19T10:08:32;12.27;;;2.03;;
48375;SDS011;34178;50.904;11.560;2023-11-19T10:10:58;11.18;;;2.17;;
48375;SDS011;34178;50.904;11.560;2023-11-19T10:13:30;10.27;;;1.75;;
48375;SDS011;34178;50.904;11.560;2023-11-19T10:15:56;10.23;;;2.22;;
48375;SDS011;34178;50.904;11.560;2023-11-19T10:18:26;13.95;;;2.20;;
48375;SDS011;34178;50.904;11.560;2023-11-19T10:20:52;16.97;;;2.17;;
48375;SDS011;34178;50.904;11.560;2023-11-19T10:23:18;13.52;;;2.00;;
48375;SDS011;34178;50.904;11.560;2023-11-19T10:25:44;16.00;;;2.28;;
48375;SDS011;34178;50.904;11.560;2023-11-19T10:28:10;13.77;;;2.13;;
48375;SDS011;34178;50.904;11.560;2023-11-19T10:30:36;19.70;;;2.67;;
48375;SDS011;34178;50.904;11.560;2023-11-19T10:33:08;12.93;;;2.17;;
48375;SDS011;34178;50.904;11.560;2023-11-19T10:35:58;16.92;;;2.30;;
48375;SDS011;34178;50.904;11.560;2023-11-19T10:38:26;13.65;;;2.17;;
48375;SDS011;34178;50.904;11.560;2023-11-19T10:40:53;15.32;;;2.35;;
48375;SDS011;34178;50.904;11.560;2023-11-19T10:43:22;9.85;;;1.90;;
48375;SDS011;34178;50.904;11.560;2023-11-19T10:45:49;13.95;;;1.77;;
48375;SDS011;34178;50.904;11.560;2023-11-19T10:48:15;10.60;;;1.83;;
48375;SDS011;34178;50.904;11.560;2023-11-19T10:50:42;13.38;;;2.03;;
48375;SDS011;34178;50.904;11.560;2023-11-19T10:53:10;14.77;;;2.60;;
48375;SDS011;34178;50.904;11.560;2023-11-19T10:55:39;12.48;;;2.40;;
48375;SDS011;34178;50.904;11.560;2023-11-19T10:58:05;13.13;;;2.13;;
48375;SDS011;34178;50.904;11.560;2023-11-19T11:00:44;7.83;;;1.67;;
48375;SDS011;34178;50.904;11.560;2023-11-19T11:03:19;12.20;;;1.83;;
48375;SDS011;34178;50.904;11.560;2023-11-19T11:08:12;8.82;;;2.08;;
48375;SDS011;34178;50.904;11.560;2023-11-19T11:10:52;11.63;;;2.30;;
48375;SDS011;34178;50.904;11.560;2023-11-19T11:13:22;9.00;;;1.50;;
48375;SDS011;34178;50.904;11.560;2023-11-19T11:15:49;11.32;;;2.63;;
48375;SDS011;34178;50.904;11.560;2023-11-19T11:18:15;13.75;;;2.00;;
48375;SDS011;34178;50.904;11.560;2023-11-19T11:20:44;8.05;;;2.25;;
48375;SDS011;34178;50.904;11.560;2023-11-19T11:26:23;10.55;;;2.00;;
48375;SDS011;34178;50.904;11.560;2023-11-19T11:39:39;12.65;;;2.08;;
48375;SDS011;34178;50.904;11.560;2023-11-19T11:50:12;11.57;;;2.13;;
48375;SDS011;34178;50.904;11.560;2023-11-19T11:57:49;11.93;;;2.63;;
48375;SDS011;34178;50.904;11.560;2023-11-19T12:00:22;11.38;;;2.28;;
48375;SDS011;34178;50.904;11.560;2023-11-19T12:02:48;15.95;;;2.45;;
48375;SDS011;34178;50.904;11.560;2023-11-19T12:05:15;12.95;;;2.33;;
48375;SDS011;34178;50.904;11.560;2023-11-19T12:07:41;14.43;;;2.33;;
48375;SDS011;34178;50.904;11.560;2023-11-19T12:10:19;9.55;;;2.45;;
48375;SDS011;34178;50.904;11.560;2023-11-19T12:12:47;14.90;;;2.60;;
48375;SDS011;34178;50.904;11.560;2023-11-19T12:15:12;12.65;;;2.53;;
48375;SDS011;34178;50.904;11.560;2023-11-19T12:17:43;12.27;;;2.22;;
48375;SDS011;34178;50.904;11.560;2023-11-19T12:20:16;14.93;;;2.08;;
48375;SDS011;34178;50.904;11.560;2023-11-19T12:22:44;9.50;;;2.15;;
48375;SDS011;34178;50.904;11.560;2023-11-19T12:25:12;12.68;;;2.33;;
48375;SDS011;34178;50.904;11.560;2023-11-19T12:27:42;12.10;;;2.25;;
48375;SDS011;34178;50.904;11.560;2023-11-19T12:30:09;15.13;;;2.45;;
48375;SDS011;34178;50.904;11.560;2023-11-19T12:32:39;11.98;;;2.88;;
48375;SDS011;34178;50.904;11.560;2023-11-19T12:35:09;12.68;;;2.97;;
48375;SDS011;34178;50.904;11.560;2023-11-19T12:37:40;9.43;;;2.05;;
48375;SDS011;34178;50.904;11.560;2023-11-19T12:40:15;9.43;;;2.28;;
48375;SDS011;34178;50.904;11.560;2023-11-19T12:42:42;21.42;;;2.45;;
48375;SDS011;34178;50.904;11.560;2023-11-19T12:45:09;12.85;;;2.55;;
48375;SDS011;34178;50.904;11.560;2023-11-19T12:47:42;14.82;;;3.13;;
48375;SDS011;34178;50.904;11.560;2023-11-19T12:50:08;12.07;;;2.45;;
48375;SDS011;34178;50.904;11.560;2023-11-19T12:52:35;14.02;;;2.58;;
48375;SDS011;34178;50.904;11.560;2023-11-19T12:55:02;12.73;;;2.83;;
48375;SDS011;34178;50.904;11.560;2023-11-19T12:57:36;11.45;;;2.22;;
48375;SDS011;34178;50.904;11.560;2023-11-19T13:00:05;10.48;;;1.67;;
48375;SDS011;34178;50.904;11.560;2023-11-19T13:02:44;13.30;;;2.03;;
48375;SDS011;34178;50.904;11.560;2023-11-19T13:05:24;10.90;;;2.00;;
48375;SDS011;34178;50.904;11.560;2023-11-19T13:10:30;11.23;;;1.70;;
48375;SDS011;34178;50.904;11.560;2023-11-19T13:13:00;11.63;;;1.80;;
48375;SDS011;34178;50.904;11.560;2023-11-19T13:15:30;14.07;;;2.15;;
48375;SDS011;34178;50.904;11.560;2023-11-19T13:17:57;10.95;;;2.80;;
48375;SDS011;34178;50.904;11.560;2023-11-19T13:20:23;12.00;;;1.92;;
48375;SDS011;34178;50.904;11.560;2023-11-19T13:25:24;13.30;;;2.15;;
48375;SDS011;34178;50.904;11.560;2023-11-19T13:27:50;11.93;;;2.10;;
48375;SDS011;34178;50.904;11.560;2023-11-19T13:30:16;11.45;;;1.98;;
48375;SDS011;34178;50.904;11.560;2023-11-19T13:32:42;13.18;;;2.90;;
48375;SDS011;34178;50.904;11.560;2023-11-19T13:35:09;19.13;;;2.58;;
48375;SDS011;34178;50.904;11.560;2023-11-19T13:37:35;10.38;;;2.30;;
48375;SDS011;34178;50.904;11.560;2023-11-19T13:40:00;14.43;;;1.98;;
48375;SDS011;34178;50.904;11.560;2023-11-19T13:42:26;14.85;;;2.10;;
48375;SDS011;34178;50.904;11.560;2023-11-19T13:44:52;11.95;;;2.22;;
48375;SDS011;34178;50.904;11.560;2023-11-19T13:47:18;11.32;;;2.58;;
48375;SDS011;34178;50.904;11.560;2023-11-19T13:49:46;12.00;;;2.22;;
48375;SDS011;34178;50.904;11.560;2023-11-19T13:52:12;12.32;;;2.17;;
48375;SDS011;34178;50.904;11.560;2023-11-19T13:54:38;16.65;;;3.53;;
48375;SDS011;34178;50.904;11.560;2023-11-19T13:57:03;13.25;;;2.65;;
48375;SDS011;34178;50.904;11.560;2023-11-19T13:59:30;8.82;;;2.10;;
48375;SDS011;34178;50.904;11.560;2023-11-19T14:01:59;14.98;;;2.90;;
48375;SDS011;34178;50.904;11.560;2023-11-19T14:04:25;13.40;;;2.67;;
48375;SDS011;34178;50.904;11.560;2023-11-19T14:06:51;11.85;;;2.38;;
48375;SDS011;34178;50.904;11.560;2023-11-19T14:09:17;13.85;;;2.72;;
48375;SDS011;34178;50.904;11.560;2023-11-19T14:11:43;16.58;;;3.35;;
48375;SDS011;34178;50.904;11.560;2023-11-19T14:14:09;16.80;;;2.85;;
48375;SDS011;34178;50.904;11.560;2023-11-19T14:16:34;15.40;;;2.78;;
48375;SDS011;34178;50.904;11.560;2023-11-19T14:19:00;15.65;;;2.50;;
48375;SDS011;34178;50.904;11.560;2023-11-19T14:21:26;12.40;;;1.95;;
48375;SDS011;34178;50.904;11.560;2023-11-19T14:23:54;14.68;;;2.60;;
48375;SDS011;34178;50.904;11.560;2023-11-19T14:26:20;13.73;;;2.60;;
48375;SDS011;34178;50.904;11.560;2023-11-19T14:28:46;13.48;;;2.67;;
48375;SDS011;34178;50.904;11.560;2023-11-19T14:31:12;14.25;;;2.15;;
48375;SDS011;34178;50.904;11.560;2023-11-19T14:33:38;16.60;;;2.50;;
48375;SDS011;34178;50.904;11.560;2023-11-19T14:36:04;13.32;;;2.50;;
48375;SDS011;34178;50.904;11.560;2023-11-19T14:38:32;11.32;;;1.73;;
48375;SDS011;34178;50.904;11.560;2023-11-19T14:40:58;15.65;;;2.28;;
48375;SDS011;34178;50.904;11.560;2023-11-19T14:43:24;15.82;;;2.85;;
48375;SDS011;34178;50.904;11.560;2023-11-19T14:45:51;12.55;;;3.03;;
48375;SDS011;34178;50.904;11.560;2023-11-19T14:48:17;15.20;;;2.85;;
48375;SDS011;34178;50.904;11.560;2023-11-19T14:50:43;12.05;;;2.70;;
48375;SDS011;34178;50.904;11.560;2023-11-19T14:53:09;16.52;;;2.20;;
48375;SDS011;34178;50.904;11.560;2023-11-19T14:55:35;16.23;;;2.45;;
48375;SDS011;34178;50.904;11.560;2023-11-19T14:58:01;15.10;;;2.97;;
48375;SDS011;34178;50.904;11.560;2023-11-19T15:00:27;14.73;;;2.97;;
48375;SDS011;34178;50.904;11.560;2023-11-19T15:02:53;12.07;;;2.33;;
48375;SDS011;34178;50.904;11.560;2023-11-19T15:05:19;14.55;;;2.35;;